Date,TemperatureHighF,TemperatureAvgF,TemperatureLowF,DewpointHighF,DewpointAvgF,DewpointLowF,HumidityHigh,HumidityAvg,HumidityLow,PressureMaxIn,PressureMinIn,WindSpeedMaxMPH,WindSpeedAvgMPH,GustSpeedMaxMPH,PrecipitationSumIn
2013-1-1,41,36,28,33,28,14,82,70,55,30.01,29.83,10,1,10,0.05
2013-1-2,34,28,24,20,17,13,76,61,48,30.17,29.98,9,1,9,0.00
2013-1-3,34,29,24,20,19,17,82,67,54,30.18,30.06,6,0,6,0.00
2013-1-15,40,38,36,37,32,29,92,78,68,30.33,30.19,1,0,5,0.16
2013-1-16,36,34,33,35,33,32,97,96,90,30.19,29.80,2,0,7,0.62
2013-1-17,44,39,36,36,32,27,96,76,59,30.08,29.90,2,0,8,0.00
2013-1-18,37,30,26,27,16,7,71,56,37,30.46,30.00,4,1,12,0.00
2013-1-19,51,38,26,31,26,16,82,64,45,30.39,29.91,1,0,7,0.00
2013-1-20,55,41,30,34,25,14,91,56,27,30.03,29.68,4,2,14,0.00
2013-1-21,34,30,22,20,16,11,79,56,45,30.08,29.83,10,0,10,0.00
2013-1-22,27,20,14,13,3,-3,60,47,33,30.21,29.83,14,2,14,0.00
2013-1-23,21,15,11,8,1,-4,80,54,39,30.25,30.16,11,1,11,0.00
2013-1-24,24,17,10,9,4,-2,88,58,32,30.42,30.11,15,2,15,0.00
2013-1-25,25,18,12,17,7,-1,88,64,45,30.43,30.06,7,0,7,0.00
2013-1-26,28,19,9,14,10,6,91,67,46,30.38,30.04,10,1,10,0.00
2013-1-27,35,24,14,17,14,9,83,64,40,30.52,30.38,9,0,9,0.00
2013-1-28,34,30,21,33,27,15,96,88,75,30.48,29.99,5,0,5,0.13
2013-1-29,53,42,34,45,39,33,98,92,72,30.12,29.99,5,0,5,0.01
2013-1-30,67,52,41,60,50,41,99,94,78,30.05,29.32,8,0,8,0.06
2013-1-31,62,45,29,60,34,14,96,66,40,29.79,29.02,18,2,18,0.74
2013-2-1,32,28,24,22,15,5,85,58,31,30.23,29.79,10,1,13,0.00
2013-2-2,24,21,18,12,10,9,73,64,58,30.29,30.23,7,0,8,0.00
2013-4-26,66,54,40,38,34,26,84,51,23,30.37,30.24,2,0,9,0.00
2013-4-27,70,57,41,37,34,29,81,46,22,30.41,30.25,1,0,8,0.00
2013-4-28,71,58,42,46,39,30,84,53,31,30.29,30.15,2,0,9,0.00
2013-4-29,57,54,51,52,50,42,95,86,58,30.21,30.15,1,0,7,0.00
2013-4-30,63,55,47,51,44,32,95,69,33,30.31,30.17,2,1,9,0.00
2013-5-1,65,53,39,46,40,34,92,66,32,30.46,30.30,2,1,9,0.00
2013-5-2,71,57,40,48,44,38,96,66,36,30.45,30.29,1,0,4,0.00
2013-5-3,63,56,47,48,43,38,86,64,48,30.42,30.33,6,1,6,0.00
2013-5-4,67,54,42,50,44,40,96,73,44,30.35,30.21,6,0,6,0.00
2013-5-5,59,51,43,47,43,40,92,76,57,30.27,30.20,7,0,7,0.00
2013-5-6,64,55,45,55,49,43,92,81,68,30.24,30.13,5,0,6,0.00
2013-5-7,69,58,46,61,54,44,97,85,72,30.15,30.05,6,0,6,0.00
2013-5-8,66,60,54,63,58,52,98,94,85,30.07,29.93,4,0,4,0.00
2013-5-9,69,60,53,60,56,52,98,89,67,29.97,29.86,4,0,4,1.47
2013-5-10,80,67,53,63,58,52,98,75,39,29.98,29.86,3,0,4,0.00
2013-5-11,73,65,62,67,63,59,98,94,69,29.88,29.67,7,0,7,0.55
2013-5-12,67,60,51,61,45,28,97,63,29,29.93,29.65,9,1,9,0.01
2013-5-13,58,50,41,38,33,27,85,54,34,30.09,29.93,9,1,9,0.00
2013-5-14,62,51,38,36,32,23,87,53,24,30.12,30.00,6,0,9,0.00
2013-5-15,75,63,43,60,52,36,85,68,52,30.05,29.66,5,0,5,0.01
2013-5-16,81,68,56,64,58,46,97,75,44,29.81,29.68,5,0,5,0.00
2013-5-17,74,65,54,50,45,41,76,50,32,30.17,29.80,7,0,7,0.00
2013-5-18,64,59,54,57,53,48,88,81,72,30.28,30.17,3,0,3,0.01
2013-5-19,58,57,56,58,56,54,98,96,87,30.27,30.14,5,0,5,0.31
2013-5-20,79,67,58,70,63,57,99,89,72,30.15,29.93,4,0,4,0.00
2013-5-21,87,73,62,76,68,60,99,85,61,29.95,29.82,6,0,6,0.01
2013-5-22,81,71,62,73,67,60,98,88,75,29.90,29.79,4,0,4,0.00
2013-5-23,83,73,69,72,69,66,95,87,65,29.86,29.72,6,0,6,0.05
2013-5-24,69,56,45,67,53,42,98,91,79,29.95,29.66,9,1,9,0.43
2013-5-25,58,51,44,46,42,36,95,73,49,30.00,29.90,15,2,15,0.10
2013-5-26,69,58,47,42,39,32,80,53,29,30.18,29.97,15,1,15,0.00
2013-5-27,75,59,41,48,43,36,93,59,30,30.23,30.10,5,0,5,0.00
2013-5-28,64,57,50,59,54,47,98,89,68,30.20,30.09,4,0,4,0.29
2013-5-29,86,70,59,73,64,58,99,85,55,30.10,29.97,5,0,5,0.01
2013-5-30,92,79,68,71,67,63,95,70,40,30.11,30.02,4,0,4,0.00
2013-5-31,94,79,67,73,67,63,95,69,39,30.10,29.95,4,0,4,0.00
2013-6-1,91,79,66,73,68,64,97,72,46,30.00,29.86,4,0,4,0.00
2013-6-2,89,80,71,73,70,67,92,73,54,29.88,29.75,5,0,5,0.10
2013-6-3,81,72,69,71,68,55,98,88,63,29.85,29.76,3,0,3,0.40
2013-6-4,76,67,57,56,48,44,70,51,35,30.09,29.86,7,0,7,0.00
2013-6-5,72,63,51,56,49,43,88,61,41,30.18,30.08,8,0,8,0.00
2013-6-6,70,63,56,61,58,54,96,86,60,30.12,29.97,5,0,5,0.15
2013-6-7,64,62,60,63,61,60,98,98,96,29.97,29.57,7,0,7,2.49
2013-6-8,76,67,57,67,62,56,99,87,68,30.03,29.56,6,0,6,0.08
2013-6-9,83,71,59,64,61,58,98,75,48,30.15,30.03,4,0,4,0.00
2013-6-10,68,66,64,66,64,62,99,95,88,30.13,29.77,5,0,5,1.34
2013-6-11,80,73,67,70,67,61,99,83,64,29.77,29.60,6,0,6,0.06
2013-6-12,80,71,63,63,59,55,86,66,43,29.82,29.69,8,0,8,0.00
2013-6-13,66,62,57,64,61,56,97,94,84,29.82,29.41,6,0,6,1.13
2013-6-14,72,61,54,64,56,52,97,86,58,29.88,29.50,6,0,6,0.25
2013-6-15,80,68,56,62,58,54,99,74,41,29.99,29.87,5,0,5,0.00
2013-6-16,82,70,58,67,62,56,96,77,49,29.97,29.75,6,0,7,0.00
2013-6-17,87,74,64,71,66,62,97,79,54,29.89,29.81,7,0,7,0.01
2013-6-18,80,70,64,72,66,63,97,88,69,29.87,29.78,4,0,4,0.14
2013-6-19,78,69,59,63,55,47,96,64,37,30.14,29.85,4,0,4,0.01
2013-6-20,82,69,56,63,58,53,94,69,46,30.24,30.14,4,0,4,0.00
2013-6-21,84,71,57,63,57,52,90,63,43,30.28,30.20,4,0,4,0.00
2013-6-22,85,72,58,68,62,54,92,71,50,30.24,30.08,2,0,4,0.00
2013-6-23,89,75,63,75,68,61,97,81,55,30.17,30.02,4,0,4,0.25
2013-6-24,94,78,70,76,70,61,99,80,48,30.05,29.93,6,0,6,0.00
2013-6-25,92,77,67,77,70,65,97,81,50,29.97,29.79,6,0,6,0.30
2013-6-26,87,78,71,74,70,66,95,78,56,29.83,29.75,4,0,4,0.02
2013-6-27,86,77,70,76,72,69,98,85,68,29.80,29.52,8,0,8,0.75
2013-6-28,86,77,71,73,71,67,98,83,61,29.54,29.44,5,0,5,0.00
2013-6-29,86,76,67,71,68,65,97,78,52,29.67,29.46,5,0,5,0.00
2013-6-30,83,76,71,76,73,69,97,90,77,29.88,29.67,3,0,3,0.08
2013-7-1,76,75,73,75,73,71,98,95,90,30.01,29.86,4,0,4,0.97
2013-7-2,84,77,73,77,74,72,97,91,74,30.15,30.01,4,0,4,0.03
2013-7-3,86,77,71,78,74,70,97,91,76,30.22,30.14,4,0,4,0.06
2013-7-4,90,81,74,78,75,73,99,84,63,30.23,30.12,4,0,4,0.01
2013-7-5,92,82,73,77,74,72,97,79,59,30.19,30.06,3,0,4,0.00
2013-7-6,93,83,74,77,74,72,95,76,54,30.12,29.99,5,0,5,0.00
2013-7-7,95,84,75,79,74,70,93,75,56,30.04,29.90,8,0,8,0.00
2013-7-8,89,79,71,74,70,67,92,75,53,30.02,29.94,5,0,6,0.00
2013-7-9,88,78,69,76,71,67,97,81,59,30.05,29.95,6,0,6,0.14
2013-7-10,84,75,72,77,73,71,98,95,79,29.99,29.87,4,0,4,0.00
2013-7-11,85,79,75,74,71,64,90,76,62,29.89,29.77,2,0,2,0.00
2013-7-12,77,73,69,71,67,64,97,84,73,30.05,29.89,5,0,5,0.32
2013-7-13,82,74,69,78,72,68,99,96,83,30.25,30.05,4,0,4,0.14
2013-7-14,90,80,74,77,75,72,99,84,61,30.31,30.21,4,0,4,0.00
2013-7-15,95,83,73,78,74,71,95,76,52,30.23,30.10,4,0,4,0.00
2013-7-16,94,83,73,74,71,67,90,68,42,30.17,30.09,4,0,4,0.00
2013-7-17,96,84,73,76,73,71,96,72,46,30.16,30.02,3,0,3,0.00
2013-7-18,98,86,75,78,75,71,91,72,45,30.05,29.92,4,0,4,0.00
2013-7-19,97,86,78,81,78,75,95,77,55,29.95,29.77,5,0,5,0.04
2013-7-20,92,81,74,78,74,71,98,81,56,29.81,29.70,6,0,6,0.50
2013-7-21,87,78,73,75,70,65,98,79,53,29.92,29.81,4,0,4,0.00
2013-7-22,87,77,72,76,73,68,97,87,69,29.92,29.76,4,0,4,0.31
2013-7-23,87,78,72,76,74,71,98,87,67,29.76,29.54,4,0,4,0.37
2013-7-24,81,75,68,71,66,56,95,76,58,29.90,29.59,5,0,5,0.00
2013-7-25,68,66,64,61,57,52,87,73,65,30.02,29.90,5,0,5,0.00
2013-7-26,82,72,65,66,62,60,88,72,53,30.02,29.97,4,0,4,0.00
2013-7-27,84,73,63,70,65,61,98,77,50,30.02,29.91,3,0,6,0.00
2013-7-28,81,72,67,72,68,64,98,89,70,29.95,29.86,5,0,5,0.57
2013-7-29,84,74,66,70,65,56,99,78,43,30.09,29.92,6,0,6,0.03
2013-7-30,82,70,59,63,60,57,95,72,46,30.15,30.07,4,0,4,0.00
2013-7-31,82,71,60,66,62,58,97,75,46,30.14,30.01,4,0,4,0.00
2013-8-1,71,69,67,69,67,64,98,93,83,30.01,29.81,0,0,0,0.98
2013-8-2,84,73,64,69,66,62,99,81,50,29.89,29.77,5,0,5,0.00
2013-8-3,77,70,65,70,66,62,95,88,76,29.90,29.83,4,0,4,0.04
2013-8-4,79,70,61,65,60,54,97,73,47,29.96,29.83,6,0,6,0.00
2013-8-5,77,67,57,59,54,47,89,65,38,30.04,29.95,5,0,5,0.00
2013-8-6,80,70,59,65,60,54,96,73,46,30.09,30.00,4,0,4,0.00
2013-8-7,79,72,66,69,67,63,93,84,68,30.11,30.03,4,0,4,0.00
2013-8-8,82,74,69,78,72,68,98,95,79,30.04,29.96,3,0,3,1.40
2013-8-9,84,77,72,79,74,72,99,93,78,29.99,29.78,6,0,6,0.06
2013-8-10,82,74,68,73,68,64,98,82,61,30.02,29.84,3,0,3,0.00
2013-8-11,82,71,60,68,62,55,95,73,45,30.10,29.99,3,0,3,0.00
2013-8-12,81,73,69,71,68,64,97,85,58,30.01,29.90,2,0,2,0.22
2013-8-13,77,71,68,72,69,65,98,92,78,29.91,29.67,5,0,5,0.70
2013-8-14,74,67,59,66,56,51,90,69,51,29.88,29.74,8,1,8,0.00
2013-8-15,78,66,53,59,54,51,95,70,41,30.12,30.03,4,0,4,0.00
2013-8-16,80,67,55,62,57,53,97,73,43,30.18,30.10,3,0,3,0.00
2013-8-17,81,68,56,64,59,55,96,74,44,30.25,30.18,3,0,3,0.00
2013-8-18,76,68,62,66,62,59,94,82,58,30.23,30.11,2,0,2,0.00
2013-8-19,76,68,62,68,64,60,97,87,66,30.12,30.02,2,0,3,0.01
2013-8-20,86,73,63,71,66,62,98,80,50,30.11,30.03,4,0,4,0.00
2013-8-21,88,75,65,71,66,62,97,75,44,30.16,30.03,5,0,5,0.00
2013-8-22,76,72,70,73,70,68,98,95,89,30.04,29.86,3,0,4,0.89
2013-8-23,81,72,65,70,64,54,98,78,43,30.07,29.86,7,0,7,0.00
2013-8-24,79,69,61,60,56,51,90,65,39,30.32,30.07,4,0,4,0.00
2013-8-25,82,68,56,62,58,54,97,74,44,30.38,30.21,4,0,4,0.00
2013-8-26,81,71,63,70,64,58,94,79,60,30.22,29.89,7,0,7,0.02
2013-8-27,86,76,69,72,70,68,98,82,58,29.90,29.81,4,0,5,0.05
2013-8-28,81,74,68,74,71,67,98,93,79,29.87,29.81,4,0,4,0.08
2013-8-29,79,72,69,71,69,66,98,89,74,30.01,29.85,4,0,4,0.00
2013-8-30,83,74,68,73,69,66,94,85,66,30.01,29.83,5,0,5,0.00
2013-8-31,86,77,70,77,72,68,96,86,71,29.85,29.75,3,0,3,0.00
2013-9-1,84,76,72,76,73,71,98,90,76,29.83,29.75,4,0,4,0.41
2013-9-2,78,74,71,75,73,70,99,96,84,29.78,29.68,3,0,3,0.16
2013-9-3,80,73,65,72,67,59,99,82,54,29.87,29.69,6,0,6,0.02
2013-9-4,79,69,59,64,60,58,96,77,52,29.99,29.86,5,0,5,0.00
2013-9-5,77,66,56,64,56,45,96,73,37,30.12,29.91,4,0,6,0.00
2013-9-6,70,60,49,52,48,42,91,66,37,30.23,30.12,4,0,4,0.00
2013-9-7,78,62,48,59,52,47,97,73,39,30.12,29.89,4,0,4,0.00
2013-9-8,77,67,62,66,62,57,93,83,69,29.89,29.81,4,0,4,0.00
2013-9-9,72,65,52,61,55,47,87,71,58,30.21,30.04,4,0,4,0.00
2013-9-10,85,75,66,75,69,61,93,84,71,30.15,30.02,4,0,4,0.00
2013-9-11,93,81,72,80,74,70,98,83,62,30.09,29.94,3,0,3,0.00
2013-9-12,86,77,69,76,72,68,97,86,68,29.97,29.65,7,0,7,0.24
2013-9-13,76,68,59,68,61,51,98,81,57,29.85,29.62,7,0,7,0.14
2013-9-14,65,58,50,52,49,47,89,73,58,30.12,29.85,6,0,6,0.00
2013-9-15,71,57,44,56,50,42,97,77,45,30.20,30.06,3,0,4,0.00
2013-9-16,70,62,54,60,55,49,98,81,56,30.21,30.02,5,0,5,0.06
2013-9-17,64,55,45,51,43,39,91,66,42,30.41,30.22,6,0,6,0.00
2013-9-18,70,55,42,51,46,40,98,75,43,30.33,30.17,3,0,3,0.00
2013-9-19,74,58,46,60,51,45,98,80,45,30.18,30.05,5,0,5,0.01
2013-9-20,78,63,50,62,56,49,98,80,51,30.07,29.96,3,0,3,0.00
2013-9-21,78,65,51,68,60,50,98,84,55,29.99,29.64,7,0,7,0.36
2013-9-22,68,62,55,67,53,42,98,74,50,29.90,29.63,7,1,7,0.34
2013-9-23,65,56,46,48,45,42,90,67,50,30.03,29.90,7,1,7,0.00
2013-9-24,71,56,42,52,47,40,96,74,45,30.04,29.86,6,0,6,0.00
2013-9-25,70,57,44,56,49,42,97,77,49,29.94,29.85,3,0,3,0.00
2013-9-26,70,59,49,60,55,47,98,87,69,30.07,29.92,2,0,4,0.00
2013-9-27,67,60,53,57,54,50,96,82,61,30.24,30.07,4,0,4,0.00
2013-9-28,72,62,54,56,54,50,95,78,48,30.30,30.21,4,0,5,0.00
2013-9-29,70,59,49,59,54,47,98,84,65,30.21,30.06,3,0,4,0.00
2013-9-30,72,59,47,56,52,46,98,80,51,30.07,29.95,4,0,4,0.00
2013-10-1,78,64,51,64,57,50,98,81,54,29.99,29.88,4,0,4,0.00
2013-10-2,81,66,54,65,60,52,98,81,55,30.00,29.89,6,0,6,0.00
2013-10-3,77,66,55,64,59,54,98,79,49,30.10,30.00,2,0,3,0.00
2013-10-4,84,68,59,68,62,57,97,83,58,30.04,29.94,4,0,4,0.00
2013-10-5,77,69,66,68,65,64,95,87,71,30.07,29.98,2,0,3,0.00
2013-10-6,69,67,65,67,65,64,96,94,92,30.06,30.01,5,0,5,0.00
2013-10-7,80,67,56,72,65,53,98,93,73,29.99,29.72,8,0,8,0.40
2013-10-8,67,56,48,53,49,44,97,78,46,30.30,29.97,6,0,6,0.00
2013-10-9,62,56,51,52,48,42,87,75,68,30.36,30.25,3,0,5,0.00
2013-10-10,62,57,52,56,52,48,93,84,79,30.25,30.03,6,0,6,0.04
2013-10-11,67,62,57,62,58,55,94,86,76,30.05,29.97,7,0,7,0.03
2013-10-12,71,65,58,59,52,42,80,65,46,30.24,30.03,6,0,6,0.00
2013-10-13,65,60,52,55,53,49,89,79,65,30.35,30.23,5,0,7,0.00
2013-10-14,67,56,47,52,50,45,97,81,54,30.34,30.22,3,0,3,0.00
2013-10-15,69,56,46,56,47,33,98,76,30,30.24,30.09,4,0,4,0.00
2013-10-16,68,60,50,60,56,48,96,88,74,30.10,29.90,3,0,3,0.00
2013-10-17,72,66,61,64,62,59,97,88,70,29.90,29.66,2,0,2,0.01
2013-10-18,66,60,49,64,49,44,93,68,47,29.97,29.66,8,0,8,0.00
2013-10-19,64,53,42,54,47,40,96,81,56,29.97,29.73,4,0,4,0.00
2013-10-20,62,53,43,54,42,36,93,69,39,30.05,29.75,5,0,5,0.00
2013-10-21,66,52,37,46,41,36,96,71,40,30.14,29.97,4,0,4,0.00
2013-10-22,65,51,41,53,46,39,97,83,61,29.97,29.74,6,0,6,0.00
2013-10-23,56,46,38,42,39,36,95,77,56,29.80,29.59,7,0,7,0.00
2013-10-24,54,44,36,37,33,28,93,69,40,30.01,29.75,8,0,8,0.00
2013-10-25,54,42,33,36,32,30,91,70,43,30.22,30.01,8,0,8,0.00
2013-10-26,55,43,30,37,33,28,96,70,42,30.21,29.88,7,0,7,0.00
2013-10-27,57,48,38,38,35,32,84,63,42,30.11,29.84,8,0,8,0.00
2013-10-28,60,46,32,39,35,29,95,69,40,30.29,30.11,6,0,6,0.00
2013-10-29,57,47,39,39,36,34,88,69,46,30.39,30.28,4,0,4,0.00
2013-10-30,60,49,38,52,44,35,91,85,73,30.33,30.16,2,0,2,0.00
2013-10-31,66,58,50,62,56,48,97,92,80,30.20,29.78,5,0,5,0.09
2013-11-1,68,63,53,65,59,52,97,87,66,29.78,29.53,8,0,8,0.30
2013-11-2,67,56,49,54,48,42,98,78,50,29.77,29.60,5,0,5,0.00
2013-11-3,50,45,35,44,34,22,91,65,40,30.44,29.76,10,1,10,0.00
2013-11-4,45,38,31,29,22,18,83,56,34,30.64,30.44,5,0,5,0.00
2013-11-5,56,45,34,43,37,28,89,75,56,30.63,30.46,2,0,5,0.00
2013-11-6,64,51,38,52,46,37,97,82,59,30.48,30.05,3,0,3,0.00
2013-11-7,62,53,38,58,49,33,97,87,62,30.05,29.74,10,0,10,0.06
2013-11-8,49,42,35,38,32,27,90,68,43,30.21,29.92,5,1,10,0.00
2013-11-9,51,41,30,34,30,27,91,68,43,30.29,29.98,6,0,6,0.00
2013-11-10,60,46,34,39,34,29,93,64,40,30.05,29.81,10,1,12,0.00
2013-11-11,55,47,36,36,31,27,73,54,42,30.20,29.94,10,0,11,0.00
2013-11-12,50,38,28,38,26,18,86,62,47,30.29,29.91,12,1,12,0.02
2013-11-13,39,31,24,21,18,12,80,58,34,30.37,30.27,11,1,11,0.00
2013-11-14,52,38,26,24,21,17,82,54,26,30.27,30.15,6,0,6,0.00
2013-11-15,57,40,29,35,28,21,84,65,32,30.24,30.14,4,0,4,0.00
2013-11-16,59,48,35,48,42,30,96,81,56,30.31,30.21,4,0,4,0.03
2013-11-17,60,54,45,58,53,44,98,94,90,30.24,29.76,2,0,2,0.01
2013-11-18,64,59,50,63,44,28,97,61,34,29.77,29.58,13,1,13,0.12
2013-11-19,50,44,36,30,26,23,61,51,44,30.33,29.77,9,2,15,0.00
2013-11-20,45,35,26,23,18,7,81,54,21,30.59,30.33,7,0,7,0.00
2013-11-21,51,41,26,42,32,20,82,72,57,30.59,30.37,3,0,5,0.00
2013-11-22,57,51,47,52,48,42,97,87,79,30.37,29.89,7,0,7,0.06
2013-11-23,53,42,31,49,28,13,95,57,38,30.03,29.89,14,2,14,0.00
2013-11-24,31,26,23,14,6,3,52,42,34,30.39,30.02,22,3,22,0.00
2013-11-25,36,28,20,18,14,8,69,55,44,30.48,30.32,7,0,7,0.00
2013-11-26,51,36,32,50,28,18,98,75,53,30.32,29.71,6,0,6,0.51
2013-11-27,62,46,34,61,43,23,98,89,61,29.76,29.34,14,2,14,1.36
2013-11-28,36,32,28,26,18,12,82,58,39,30.45,29.76,16,1,16,0.01
2013-11-29,39,31,27,25,22,18,87,70,50,30.72,30.45,5,0,9,0.00
2013-11-30,37,31,24,31,22,14,81,70,57,30.73,30.35,7,0,7,0.00
2013-12-1,48,39,29,36,31,26,92,74,58,30.35,30.00,5,0,5,0.00
2013-12-2,49,41,33,35,33,30,91,75,51,30.00,29.86,4,0,4,0.00
2013-12-3,53,41,33,41,35,30,96,81,54,29.99,29.85,5,0,5,0.00
2013-12-4,50,42,32,46,38,30,96,87,74,30.11,29.99,3,0,3,0.00
2013-12-5,57,52,47,56,51,46,98,96,90,30.09,29.91,3,0,3,0.02
2013-12-6,61,48,38,60,47,37,99,95,92,30.14,29.84,11,1,11,0.87
2013-12-7,41,36,30,37,30,18,96,78,59,30.50,30.07,10,1,10,0.10
2013-12-8,33,30,27,29,22,17,95,73,59,30.57,30.33,5,0,5,0.00
2013-12-9,37,34,30,36,33,29,97,96,95,30.33,29.96,5,0,6,0.29
2013-12-10,34,31,23,33,30,20,98,95,90,30.13,29.87,7,0,7,0.01
2013-12-11,32,26,20,23,20,17,92,79,62,30.32,30.13,8,0,8,0.01
2013-12-12,28,24,18,19,13,7,77,63,45,30.35,30.16,11,1,11,0.00
2013-12-13,34,26,16,23,17,10,84,71,53,30.31,30.13,10,0,10,0.00
2013-12-14,31,26,21,29,22,19,96,86,73,30.46,29.74,9,1,9,0.00
2013-12-15,38,34,30,34,30,23,97,86,67,29.84,29.50,10,1,10,0.46
2013-12-16,31,26,17,25,16,11,85,66,47,30.22,29.83,11,1,11,0.00
2013-12-17,30,25,20,28,22,16,93,88,71,30.21,29.91,5,0,5,0.00
2013-12-18,36,27,18,26,22,16,92,81,60,30.17,29.91,9,0,9,0.05
2013-12-19,43,30,18,31,25,16,94,83,60,30.18,30.01,2,0,3,0.15
2013-12-20,48,37,29,36,32,28,96,83,63,30.09,29.95,1,0,2,0.23
2013-12-21,58,44,35,51,42,34,98,91,77,29.99,29.88,4,0,4,0.03
2013-12-22,68,62,45,64,58,44,99,88,78,29.94,29.77,7,0,7,0.02
2013-12-23,60,54,41,60,52,31,98,93,70,30.15,29.86,12,1,12,0.57
2013-12-24,41,35,26,31,24,12,89,63,49,30.35,30.08,14,2,14,0.00
2013-12-25,28,25,19,18,12,9,69,57,48,30.52,30.35,14,1,14,0.00
2013-12-26,35,30,24,29,24,18,88,80,68,30.41,30.16,6,0,6,0.00
2013-12-27,40,30,22,26,23,20,92,76,51,30.35,30.25,7,0,7,0.00
2013-12-28,55,36,23,33,27,21,94,73,41,30.28,30.05,7,0,7,0.00
2013-12-29,43,39,32,42,36,28,97,90,82,30.06,29.41,10,0,10,0.96
2013-12-30,44,34,23,40,28,12,98,78,58,30.17,29.69,11,1,11,0.00
2013-12-31,32,26,20,28,16,11,87,67,56,30.28,30.05,11,0,11,0.00
2014-1-1,34,28,22,23,19,13,83,67,56,30.40,30.21,3,0,3,0.00
2014-1-2,32,26,16,25,22,13,92,83,69,30.21,29.65,8,2,10,0.00